Time;durP1;ratioP1;P1;durP2;ratioP2;P2;SDS_P1;SDS_P2;PMS_P1;PMS_P2;Temp;Humidity;BMP_temperature;BMP_pressure;BME280_temperature;BME280_humidity;BME280_pressure;Samples;Min_cycle;Max_cycle;Signal;HPM_P1;HPM_P2
2021/08/02 00:30:16;;;;;;;6.07;4.33;;;14.40;99.90;;;;;;6265664;22;20436;-85
2021/08/02 00:32:47;;;;;;;9.80;6.40;;;14.30;99.90;;;;;;6239644;22;20401;-84
2021/08/02 00:35:38;;;;;;;4.43;4.03;;;14.30;99.90;;;;;;6251036;22;20491;-84
2021/08/02 00:38:09;;;;;;;4.03;3.73;;;14.20;99.90;;;;;;6240078;22;20404;-84
2021/08/02 00:40:48;;;;;;;6.30;3.80;;;14.20;99.90;;;;;;6265607;22;20385;-84
2021/08/02 00:43:33;;;;;;;4.57;4.17;;;14.20;99.90;;;;;;6237351;22;20408;-84
2021/08/02 00:46:00;;;;;;;4.00;3.67;;;14.20;99.90;;;;;;6267076;22;20772;-85
2021/08/02 00:48:32;;;;;;;5.40;4.90;;;14.20;99.90;;;;;;6238963;22;20494;-84
2021/08/02 00:51:02;;;;;;;6.40;3.73;;;14.20;99.90;;;;;;6238344;22;20477;-84
2021/08/02 00:53:29;;;;;;;5.23;4.00;;;14.20;99.90;;;;;;6238495;22;20397;-84
2021/08/02 00:55:58;;;;;;;4.60;3.80;;;14.20;99.90;;;;;;6237935;22;20475;-84
2021/08/02 00:58:26;;;;;;;4.53;3.87;;;14.30;99.90;;;;;;6237570;22;20401;-84
2021/08/02 01:00:52;;;;;;;4.60;4.00;;;14.20;99.90;;;;;;6240491;22;20404;-84
2021/08/02 01:03:25;;;;;;;5.10;4.07;;;14.20;99.90;;;;;;6238359;22;20480;-84
2021/08/02 01:05:53;;;;;;;4.67;4.13;;;14.20;99.90;;;;;;6238644;22;20415;-84
2021/08/02 01:11:35;;;;;;;4.40;4.07;;;14.30;99.90;;;;;;6264252;22;20796;-84
2021/08/02 01:14:22;;;;;;;;;;;;;;;;;;;;;
2021/08/02 01:17:03;;;;;;;3.90;3.50;;;14.30;99.90;;;;;;6266121;22;20495;-85
2021/08/02 01:19:35;;;;;;;5.23;3.70;;;14.30;99.90;;;;;;6267258;22;20397;-84
2021/08/02 01:22:03;;;;;;;4.50;3.50;;;14.30;99.90;;;;;;6265636;22;20715;-85
2021/08/02 01:25:06;;;;;;;3.80;3.40;;;14.40;99.90;;;;;;6237129;22;20484;-85
2021/08/02 01:28:18;;;;;;;4.43;4.10;;;14.40;99.90;;;;;;6264756;22;20441;-84
2021/08/02 01:31:05;;;;;;;3.87;3.60;;;14.40;99.90;;;;;;6235223;22;20400;-84
2021/08/02 01:33:33;;;;;;;5.00;3.43;;;14.40;99.90;;;;;;6234973;22;20397;-85
2021/08/02 01:36:04;;;;;;;4.70;3.10;;;14.40;99.90;;;;;;6239258;22;20397;-85
2021/08/02 01:38:31;;;;;;;4.47;3.63;;;14.40;99.90;;;;;;6237749;22;20401;-84
2021/08/02 01:40:57;;;;;;;3.90;3.50;;;14.40;99.90;;;;;;6237795;22;21009;-84
2021/08/02 01:43:23;;;;;;;3.50;3.00;;;14.40;99.90;;;;;;6264330;22;20409;-84
2021/08/02 01:46:15;;;;;;;3.47;3.17;;;14.40;99.90;;;;;;6265564;22;20427;-84
2021/08/02 01:48:55;;;;;;;4.20;3.80;;;14.40;99.90;;;;;;6205803;22;21027;-84
2021/08/02 01:52:02;;;;;;;4.10;3.60;;;14.40;99.90;;;;;;6236804;22;20575;-84
2021/08/02 01:54:49;;;;;;;4.33;3.90;;;14.40;99.90;;;;;;6239785;22;20397;-84
2021/08/02 01:57:21;;;;;;;3.67;3.37;;;14.40;99.90;;;;;;6238322;22;20393;-85
2021/08/02 02:00:13;;;;;;;5.97;3.50;;;14.40;99.90;;;;;;6237746;22;20393;-86
2021/08/02 02:02:42;;;;;;;3.90;3.47;;;14.40;99.90;;;;;;6231812;22;20480;-85
2021/08/02 02:05:20;;;;;;;5.67;3.63;;;14.40;99.90;;;;;;6266826;22;20472;-85
2021/08/02 02:07:50;;;;;;;4.23;3.33;;;14.40;99.90;;;;;;6239640;22;20474;-84
2021/08/02 02:10:22;;;;;;;4.97;3.80;;;14.40;99.90;;;;;;6241583;22;20401;-85
2021/08/02 02:12:49;;;;;;;3.90;3.60;;;14.40;99.90;;;;;;6238650;22;20687;-85
2021/08/02 02:15:22;;;;;;;5.23;3.37;;;14.40;99.90;;;;;;6266061;22;20717;-84
2021/08/02 02:17:49;;;;;;;3.60;3.30;;;14.40;99.90;;;;;;6266287;22;20442;-84
2021/08/02 02:20:22;;;;;;;9.90;3.40;;;14.40;99.90;;;;;;6238670;22;20397;-84
2021/08/02 02:22:48;;;;;;;5.17;3.77;;;14.50;99.90;;;;;;6240111;22;20385;-84
2021/08/02 02:25:14;;;;;;;5.53;3.67;;;14.50;99.90;;;;;;6239407;22;20876;-84
2021/08/02 02:27:41;;;;;;;4.73;3.50;;;14.50;99.90;;;;;;6239497;22;20197;-85
2021/08/02 02:30:27;;;;;;;3.83;3.53;;;14.40;99.90;;;;;;6239958;22;20413;-84
2021/08/02 02:32:53;;;;;;;4.07;3.60;;;14.40;99.90;;;;;;6264385;22;20411;-84
2021/08/02 02:35:21;;;;;;;4.40;4.00;;;14.40;99.90;;;;;;6239198;22;20431;-85
2021/08/02 02:37:47;;;;;;;3.47;3.17;;;14.50;99.90;;;;;;6240209;22;20730;-85
2021/08/02 02:40:14;;;;;;;3.53;3.20;;;14.40;99.90;;;;;;6240357;22;20399;-84
2021/08/02 02:42:41;;;;;;;7.20;3.80;;;14.40;99.90;;;;;;6240008;22;20393;-84
2021/08/02 02:45:27;;;;;;;4.20;3.30;;;14.40;99.90;;;;;;6236404;22;20803;-84
2021/08/02 02:48:00;;;;;;;4.80;3.60;;;14.40;99.90;;;;;;6239263;22;20485;-84
2021/08/02 02:50:27;;;;;;;6.73;3.50;;;14.30;99.90;;;;;;6238558;22;20397;-85
2021/08/02 02:53:02;;;;;;;5.73;3.67;;;14.30;99.90;;;;;;6266734;22;20376;-85
2021/08/02 02:58:36;;;;;;;3.80;3.50;;;14.40;99.90;;;;;;6244899;22;20946;-84
2021/08/02 03:01:40;;;;;;;5.90;4.30;;;14.40;99.90;;;;;;6214514;22;21310;-83
2021/08/02 03:04:09;;;;;;;4.50;3.90;;;14.40;99.90;;;;;;6196908;22;20397;-83
2021/08/02 03:06:40;;;;;;;4.83;4.33;;;14.30;99.90;;;;;;6236444;22;20438;-83
2021/08/02 03:09:07;;;;;;;5.60;3.77;;;14.30;99.90;;;;;;6265966;22;20508;-83
2021/08/02 03:11:35;;;;;;;3.80;3.50;;;14.30;99.90;;;;;;6267744;22;20388;-83
2021/08/02 03:14:01;;;;;;;4.43;4.10;;;14.20;99.90;;;;;;6267082;22;20393;-83
2021/08/02 03:16:29;;;;;;;4.27;3.87;;;14.20;99.90;;;;;;6266267;22;20755;-83
2021/08/02 03:19:17;;;;;;;4.10;3.30;;;14.20;99.90;;;;;;6239140;22;20929;-83
2021/08/02 03:21:48;;;;;;;4.57;4.00;;;14.20;99.90;;;;;;6264898;22;20385;-83
2021/08/02 03:24:35;;;;;;;3.90;3.37;;;14.20;99.90;;;;;;6239441;22;20389;-83
2021/08/02 03:27:13;;;;;;;3.90;3.60;;;14.30;99.90;;;;;;6266025;22;20436;-85
2021/08/02 03:29:49;;;;;;;3.40;3.20;;;14.40;99.90;;;;;;6239470;22;20792;-86
2021/08/02 03:32:26;;;;;;;4.33;4.03;;;14.40;99.90;;;;;;6237769;22;20400;-86
2021/08/02 03:35:02;;;;;;;3.90;3.60;;;14.40;99.90;;;;;;6238572;22;20416;-86
2021/08/02 03:37:29;;;;;;;3.90;3.40;;;14.40;99.90;;;;;;6239244;22;20392;-85
2021/08/02 03:40:05;;;;;;;5.13;4.20;;;14.30;99.90;;;;;;6238563;22;20470;-85
2021/08/02 03:42:35;;;;;;;3.97;3.60;;;14.20;99.90;;;;;;6237992;22;20392;-85
2021/08/02 03:45:07;;;;;;;3.80;3.50;;;14.30;99.90;;;;;;6239341;22;20419;-85
2021/08/02 03:47:33;;;;;;;7.03;3.80;;;14.30;99.90;;;;;;6238576;22;20517;-85
2021/08/02 03:50:12;;;;;;;4.40;4.00;;;14.30;99.90;;;;;;6238434;22;20736;-86
2021/08/02 03:52:43;;;;;;;6.10;4.03;;;14.30;99.90;;;;;;6239900;22;20409;-83
2021/08/02 03:55:11;;;;;;;7.80;3.97;;;14.30;99.90;;;;;;6237921;22;20393;-83
2021/08/02 03:57:37;;;;;;;4.83;3.80;;;14.30;99.90;;;;;;6238401;22;20504;-83
2021/08/02 04:00:04;;;;;;;3.67;3.37;;;14.30;99.90;;;;;;6238929;22;20433;-83
2021/08/02 04:02:41;;;;;;;3.97;3.57;;;14.30;99.90;;;;;;6264780;22;20162;-83
2021/08/02 04:05:07;;;;;;;4.93;3.27;;;14.30;99.90;;;;;;6238406;22;20417;-83
2021/08/02 04:07:33;;;;;;;3.67;3.37;;;14.40;99.90;;;;;;6267254;22;20428;-83
2021/08/02 04:10:02;;;;;;;5.23;4.10;;;14.40;99.90;;;;;;6239430;22;20389;-83
2021/08/02 04:12:28;;;;;;;3.87;3.37;;;14.40;99.90;;;;;;6240411;22;20966;-84
2021/08/02 04:14:56;;;;;;;4.03;3.70;;;14.40;99.90;;;;;;6237235;22;20456;-84
2021/08/02 04:17:22;;;;;;;3.83;3.53;;;14.40;99.90;;;;;;6236815;22;20526;-84
2021/08/02 04:20:01;;;;;;;5.37;3.70;;;14.40;99.90;;;;;;6239808;22;20446;-84
2021/08/02 04:22:26;;;;;;;3.87;3.53;;;14.40;99.90;;;;;;6238486;22;20396;-83
2021/08/02 04:33:08;;;;;;;3.97;3.50;;;14.40;99.90;;;;;;6263868;22;20470;-79
2021/08/02 04:35:33;;;;;;;5.90;3.53;;;14.50;99.90;;;;;;6265380;22;20397;-79
2021/08/02 04:37:59;;;;;;;4.67;3.83;;;14.50;99.90;;;;;;6239623;22;20162;-80
2021/08/02 04:40:25;;;;;;;4.50;3.83;;;14.50;99.90;;;;;;6239847;22;20171;-79
2021/08/02 04:42:50;;;;;;;3.80;3.37;;;14.50;99.90;;;;;;6239286;22;20182;-80
2021/08/02 04:45:16;;;;;;;4.13;3.67;;;14.50;99.90;;;;;;6239209;22;20196;-80
2021/08/02 04:47:42;;;;;;;5.97;3.60;;;14.50;99.90;;;;;;6239984;22;20186;-79
2021/08/02 04:50:08;;;;;;;5.13;3.80;;;14.50;99.90;;;;;;6239865;22;20169;-79
2021/08/02 04:52:33;;;;;;;4.97;4.00;;;14.50;99.90;;;;;;6266669;22;20237;-79
2021/08/02 04:54:59;;;;;;;3.60;3.07;;;14.50;99.90;;;;;;6239564;22;20772;-80
2021/08/02 04:57:25;;;;;;;6.53;3.23;;;14.60;99.90;;;;;;6240823;22;20212;-79
2021/08/02 04:59:50;;;;;;;4.20;3.40;;;14.60;99.90;;;;;;6266609;22;20161;-79
2021/08/02 05:02:16;;;;;;;4.37;3.97;;;14.60;99.90;;;;;;6240328;22;20198;-80
2021/08/02 05:04:41;;;;;;;3.90;3.60;;;14.70;99.90;;;;;;6239835;22;20764;-80
2021/08/02 05:07:07;;;;;;;4.80;3.50;;;14.70;99.90;;;;;;6237872;22;20496;-79
2021/08/02 05:09:33;;;;;;;4.10;3.80;;;14.70;99.90;;;;;;6237283;22;20177;-80
2021/08/02 05:11:58;;;;;;;3.80;3.40;;;14.80;99.90;;;;;;6264826;22;20158;-80
2021/08/02 05:14:24;;;;;;;4.60;3.40;;;14.80;99.90;;;;;;6235642;22;20171;-80
2021/08/02 05:16:50;;;;;;;4.20;3.80;;;14.80;99.90;;;;;;6238793;22;20158;-80
2021/08/02 05:19:15;;;;;;;5.00;4.60;;;14.80;99.90;;;;;;6238852;22;20630;-80
2021/08/02 05:21:41;;;;;;;5.37;3.37;;;14.80;99.90;;;;;;6236343;22;20249;-80
2021/08/02 05:24:06;;;;;;;6.60;3.97;;;14.80;99.90;;;;;;6238149;22;20249;-80
2021/08/02 05:26:32;;;;;;;4.00;3.60;;;14.80;99.90;;;;;;6239459;22;20162;-78
2021/08/02 05:28:58;;;;;;;3.90;3.50;;;14.80;99.90;;;;;;6238715;22;20189;-80
2021/08/02 05:31:24;;;;;;;3.83;3.43;;;14.90;99.90;;;;;;6238380;22;20201;-80
2021/08/02 05:33:50;;;;;;;4.17;3.30;;;15.00;99.90;;;;;;6238910;22;20430;-81
2021/08/02 05:36:16;;;;;;;6.63;3.70;;;15.00;99.90;;;;;;6240851;22;20678;-81
2021/08/02 05:38:42;;;;;;;4.27;3.87;;;15.00;99.90;;;;;;6239036;22;20247;-79
2021/08/02 05:41:08;;;;;;;3.47;3.17;;;15.00;99.90;;;;;;6264381;22;20388;-80
2021/08/02 05:48:26;;;;;;;4.60;3.53;;;14.90;99.90;;;;;;6120406;22;20523;-86
2021/08/02 07:37:44;;;;;;;3.40;3.10;;;17.20;99.90;;;;;;6257611;22;20505;-85
2021/08/02 08:00:46;;;;;;;4.40;3.10;;;17.30;99.90;;;;;;6258461;22;20455;-83
2021/08/02 08:53:59;;;;;;;;;;;;;;;;;;;;;
2021/08/02 09:01:36;;;;;;;3.07;2.50;;;19.50;99.90;;;;;;6262824;22;20601;-82
2021/08/02 09:04:37;;;;;;;3.73;2.40;;;19.60;99.90;;;;;;6239825;22;20421;-83
2021/08/02 09:13:39;;;;;;;2.10;2.00;;;19.50;99.90;;;;;;6259707;22;20491;-83
2021/08/02 09:16:15;;;;;;;2.17;2.07;;;19.70;99.90;;;;;;6235959;22;20401;-84
2021/08/02 09:19:12;;;;;;;4.50;2.30;;;19.80;99.90;;;;;;6264591;22;20767;-84
2021/08/02 09:21:43;;;;;;;2.40;2.30;;;19.80;99.90;;;;;;6217506;22;20499;-86
2021/08/02 09:24:39;;;;;;;3.37;1.80;;;20.10;99.90;;;;;;6260408;22;20398;-82
2021/08/02 09:33:16;;;;;;;2.37;2.17;;;20.60;99.90;;;;;;6257057;22;20444;-83
2021/08/02 09:35:47;;;;;;;1.90;1.80;;;20.30;99.90;;;;;;6237359;22;20885;-86
2021/08/02 09:38:14;;;;;;;2.23;1.97;;;20.40;99.90;;;;;;6236346;22;20412;-84
2021/08/02 09:40:59;;;;;;;1.93;1.83;;;20.60;99.90;;;;;;6265965;22;20484;-84
2021/08/02 09:46:32;;;;;;;2.07;1.87;;;21.20;99.90;;;;;;6263788;22;20447;-84
2021/08/02 09:51:54;;;;;;;1.50;1.40;;;21.40;99.90;;;;;;6265991;22;20447;-85
2021/08/02 09:55:05;;;;;;;2.00;1.63;;;21.50;98.10;;;;;;6265219;22;20432;-85
2021/08/02 10:09:36;;;;;;;1.57;1.47;;;21.80;98.80;;;;;;6265597;22;20408;-84
2021/08/02 10:12:05;;;;;;;2.00;1.70;;;21.50;98.80;;;;;;6238696;22;20397;-86
2021/08/02 10:14:44;;;;;;;1.70;1.60;;;21.80;97.90;;;;;;6241100;22;20384;-85
2021/08/02 10:22:59;;;;;;;1.70;1.60;;;20.80;99.30;;;;;;6252985;22;20787;-87
2021/08/02 10:25:45;;;;;;;2.40;2.20;;;20.70;99.60;;;;;;6236459;22;20407;-87
2021/08/02 10:35:25;;;;;;;2.00;1.90;;;21.20;96.40;;;;;;6241121;22;20463;-87
2021/08/02 10:38:23;;;;;;;2.30;1.90;;;21.10;96.80;;;;;;6181616;22;20463;-87
2021/08/02 10:52:07;;;;;;;1.50;1.40;;;22.10;96.30;;;;;;6266775;22;20476;-84
2021/08/02 10:54:40;;;;;;;1.67;1.57;;;22.20;96.50;;;;;;6240129;22;20484;-84
2021/08/02 10:57:26;;;;;;;2.10;1.53;;;22.10;96.60;;;;;;6266226;22;20764;-84
2021/08/02 11:27:37;;;;;;;2.20;1.80;;;23.10;95.00;;;;;;6264517;22;20781;-87
2021/08/02 11:30:50;;;;;;;2.37;1.70;;;23.20;92.40;;;;;;6235120;22;20458;-88
2021/08/02 11:33:53;;;;;;;1.67;1.57;;;23.50;93.30;;;;;;6087851;23;20405;-86
2021/08/02 11:40:02;;;;;;;2.13;1.60;;;20.70;98.40;;;;;;6172355;23;21051;-86
2021/08/02 11:42:45;;;;;;;1.27;1.10;;;20.50;98.30;;;;;;6167241;23;20395;-86
2021/08/02 11:45:20;;;;;;;0.70;0.70;;;21.00;97.50;;;;;;6220761;22;20400;-87
2021/08/02 11:47:52;;;;;;;0.60;0.60;;;21.70;94.70;;;;;;6239166;22;20440;-86
2021/08/02 11:50:30;;;;;;;1.10;0.93;;;21.30;93.70;;;;;;6237637;22;20393;-88
2021/08/02 12:01:49;;;;;;;1.00;1.00;;;21.70;94.80;;;;;;6266515;22;20420;-84
2021/08/02 12:04:50;;;;;;;1.53;1.40;;;21.80;95.40;;;;;;6185880;22;20753;-86
2021/08/02 12:07:51;;;;;;;1.30;1.20;;;22.10;96.50;;;;;;6235552;22;20487;-86
2021/08/02 12:10:25;;;;;;;1.37;1.27;;;22.50;94.50;;;;;;6228589;22;20396;-86
2021/08/02 12:13:24;;;;;;;1.60;1.50;;;22.00;95.10;;;;;;6232215;22;20389;-88
2021/08/02 12:16:10;;;;;;;1.33;1.23;;;21.40;95.90;;;;;;6235118;22;21013;-86
2021/08/02 12:19:28;;;;;;;1.33;1.23;;;21.40;95.90;;;;;;6228368;22;20469;-87
2021/08/02 12:22:50;;;;;;;1.60;1.47;;;21.90;96.60;;;;;;6211676;22;20787;-86
2021/08/02 12:32:04;;;;;;;2.60;1.47;;;21.40;98.30;;;;;;6138493;23;20395;-85
2021/08/02 12:46:05;;;;;;;3.10;1.50;;;20.80;99.90;;;;;;6264142;22;20432;-85
2021/08/02 13:18:40;;;;;;;2.17;1.60;;;22.60;96.60;;;;;;6248127;22;20498;-85
2021/08/02 13:21:34;;;;;;;3.37;1.80;;;22.00;97.00;;;;;;6235520;22;20397;-85
2021/08/02 13:27:00;;;;;;;1.63;1.53;;;21.40;96.50;;;;;;6262867;22;20411;-85
2021/08/02 13:30:16;;;;;;;2.90;1.40;;;21.80;96.70;;;;;;6239921;22;20440;-86
2021/08/02 13:32:42;;;;;;;1.80;1.33;;;21.90;96.30;;;;;;6234387;22;20452;-81
2021/08/02 13:35:08;;;;;;;3.00;1.37;;;22.30;95.60;;;;;;6236581;22;20871;-80
2021/08/02 13:37:33;;;;;;;6.57;2.00;;;22.00;95.80;;;;;;6263387;22;20150;-85
2021/08/02 13:40:01;;;;;;;1.47;1.37;;;21.40;96.00;;;;;;6239507;22;20162;-85
2021/08/02 13:42:32;;;;;;;1.70;1.60;;;21.20;96.60;;;;;;6246051;22;20166;-87
2021/08/02 13:45:03;;;;;;;3.43;1.87;;;21.20;97.10;;;;;;6236831;22;20742;-86
2021/08/02 13:47:30;;;;;;;1.77;1.67;;;21.30;97.40;;;;;;6238265;22;20401;-87
2021/08/02 13:49:56;;;;;;;2.13;1.60;;;21.20;96.50;;;;;;6236968;22;20435;-88
2021/08/02 13:52:22;;;;;;;1.57;1.47;;;21.30;96.70;;;;;;6237112;22;20421;-88
2021/08/02 13:54:50;;;;;;;1.40;1.30;;;21.80;95.70;;;;;;6235439;22;20529;-86
2021/08/02 13:57:21;;;;;;;2.10;1.53;;;22.80;94.60;;;;;;6236998;22;20608;-87
2021/08/02 13:59:58;;;;;;;1.70;1.60;;;22.60;93.70;;;;;;6237653;22;20500;-87
2021/08/02 14:02:47;;;;;;;3.47;1.60;;;22.70;95.40;;;;;;6237099;22;20393;-87
2021/08/02 14:05:17;;;;;;;1.53;1.43;;;22.80;94.80;;;;;;6239439;22;20400;-88
2021/08/02 14:07:43;;;;;;;1.47;1.37;;;22.40;93.10;;;;;;6188784;22;20527;-88
2021/08/02 14:10:09;;;;;;;1.70;1.30;;;22.30;93.00;;;;;;6238820;22;20428;-88
2021/08/02 14:12:37;;;;;;;1.63;1.53;;;22.20;93.30;;;;;;6239855;22;20249;-87
2021/08/02 14:15:06;;;;;;;1.77;1.67;;;22.20;92.70;;;;;;6240370;22;20404;-84
2021/08/02 14:17:47;;;;;;;1.33;1.20;;;22.20;93.00;;;;;;6266910;22;20388;-85
2021/08/02 14:20:12;;;;;;;1.70;1.53;;;23.60;92.00;;;;;;6238809;22;20477;-86
2021/08/02 14:22:40;;;;;;;1.60;1.50;;;25.00;90.60;;;;;;6237154;22;20738;-86
2021/08/02 14:25:06;;;;;;;2.33;1.60;;;26.90;85.80;;;;;;6234045;22;20195;-85
2021/08/02 14:27:58;;;;;;;2.23;2.03;;;26.30;86.10;;;;;;6235550;22;20429;-85
2021/08/02 14:47:29;;;;;;;3.10;1.80;;;25.80;84.50;;;;;;6264339;22;20435;-87
2021/08/02 15:09:26;;;;;;;1.97;1.70;;;21.90;93.10;;;;;;6265383;22;20452;-87
2021/08/02 15:26:19;;;;;;;;;;;;;;;;;;;;;
2021/08/02 15:32:39;;;;;;;1.47;1.40;;;26.40;86.90;;;;;;6211027;22;21012;-87
2021/08/02 15:35:17;;;;;;;1.50;1.40;;;25.80;90.40;;;;;;6237332;22;20400;-91
2021/08/02 15:37:45;;;;;;;1.87;1.70;;;26.60;90.50;;;;;;6238473;22;20401;-89
2021/08/02 15:40:15;;;;;;;1.50;1.40;;;27.60;83.90;;;;;;6238162;22;20455;-85
2021/08/02 15:42:48;;;;;;;1.87;1.77;;;28.10;82.90;;;;;;6264179;22;20467;-84
2021/08/02 15:45:20;;;;;;;1.70;1.57;;;26.90;83.60;;;;;;6238024;22;20477;-83
2021/08/02 15:47:48;;;;;;;2.07;1.80;;;25.50;88.40;;;;;;6239764;22;20431;-84
2021/08/02 17:07:33;;;;;;;1.40;1.30;;;19.80;96.30;;;;;;6259700;22;20507;-84
2021/08/02 17:09:59;;;;;;;1.43;1.10;;;19.70;97.50;;;;;;6236912;22;20408;-83
2021/08/02 17:12:28;;;;;;;1.83;1.70;;;19.60;97.40;;;;;;6234519;22;20162;-84
2021/08/02 17:14:56;;;;;;;1.93;1.80;;;19.60;98.30;;;;;;6207387;22;20196;-82
2021/08/02 17:17:22;;;;;;;2.23;1.70;;;19.10;99.80;;;;;;6237385;22;20399;-82
2021/08/02 17:19:47;;;;;;;5.37;2.17;;;18.50;99.90;;;;;;6233792;22;20807;-83
2021/08/02 17:22:13;;;;;;;4.93;2.10;;;17.90;99.90;;;;;;6262850;22;20644;-83
2021/08/02 17:24:39;;;;;;;2.60;2.17;;;17.60;99.90;;;;;;6237793;22;20169;-83
2021/08/02 17:27:05;;;;;;;1.93;1.73;;;17.40;99.90;;;;;;6237692;22;20605;-83
2021/08/02 17:34:41;;;;;;;3.20;3.00;;;17.10;99.90;;;;;;6254971;22;20462;-90
2021/08/02 17:37:06;;;;;;;3.30;2.17;;;17.20;99.90;;;;;;6238373;22;20401;-91
2021/08/02 17:39:32;;;;;;;2.40;2.17;;;17.30;99.90;;;;;;6238593;22;20173;-90
2021/08/02 18:42:43;;;;;;;2.20;2.00;;;16.90;99.90;;;;;;6261387;22;20906;-84
